Seaforth, Minnesota
Current Conditions -  °F | °C
As of 12:53 AM on Tuesday 21 Oct 2014 (Local Time) from KRWF Reporting Station
Clear Clear  
Wind Chill: 45°   Ceiling: Unl
Heat Index: 47°   Visibility: 10mi
Dew Point: 37°   Wind: 5mph
Humidity: 68%   Direction: 90°E
Pressure: 30.08"   Gusts: NA
Location:  44.48°N, 95.33°W
Report Text: KRWF 210553Z AUTO 09004KT 10SM CLR 08/03 A3008 RMK AO2 SLP189 T00830028 10161 20083 402000050 51014
Loading
Personal Weather Stations






























Interactive Weather Map
Tropical Storm Tracking
New forecast layout! Learn more

10-Day Weather Forecast

Advertisements
Track Severe Weather on mobile